sensor_id;sensor_type;location;lat;lon;timestamp;P1;durP1;ratioP1;P2;durP2;ratioP2
79212;SDS011;68639;52.380;9.822;2023-05-21T00:01:00;13.50;;;8.05;;
79212;SDS011;68639;52.380;9.822;2023-05-21T00:03:27;11.73;;;7.80;;
79212;SDS011;68639;52.380;9.822;2023-05-21T00:05:54;12.10;;;8.88;;
79212;SDS011;68639;52.380;9.822;2023-05-21T00:08:19;12.18;;;8.20;;
79212;SDS011;68639;52.380;9.822;2023-05-21T00:10:45;10.48;;;7.80;;
79212;SDS011;68639;52.380;9.822;2023-05-21T00:13:10;11.65;;;8.23;;
79212;SDS011;68639;52.380;9.822;2023-05-21T00:15:36;12.35;;;7.75;;
79212;SDS011;68639;52.380;9.822;2023-05-21T00:18:01;10.68;;;7.97;;
79212;SDS011;68639;52.380;9.822;2023-05-21T00:20:27;14.52;;;8.30;;
79212;SDS011;68639;52.380;9.822;2023-05-21T00:22:53;12.20;;;8.10;;
79212;SDS011;68639;52.380;9.822;2023-05-21T00:25:18;10.27;;;7.78;;
79212;SDS011;68639;52.380;9.822;2023-05-21T00:27:44;11.10;;;8.13;;
79212;SDS011;68639;52.380;9.822;2023-05-21T00:30:09;11.65;;;8.20;;
79212;SDS011;68639;52.380;9.822;2023-05-21T00:32:35;11.10;;;8.68;;
79212;SDS011;68639;52.380;9.822;2023-05-21T00:35:00;13.43;;;8.00;;
79212;SDS011;68639;52.380;9.822;2023-05-21T00:37:26;12.07;;;8.50;;
79212;SDS011;68639;52.380;9.822;2023-05-21T00:39:56;12.52;;;8.80;;
79212;SDS011;68639;52.380;9.822;2023-05-21T00:42:21;11.17;;;9.60;;
79212;SDS011;68639;52.380;9.822;2023-05-21T00:44:51;12.52;;;9.07;;
79212;SDS011;68639;52.380;9.822;2023-05-21T00:47:18;10.88;;;8.80;;
79212;SDS011;68639;52.380;9.822;2023-05-21T00:49:45;11.98;;;8.80;;
79212;SDS011;68639;52.380;9.822;2023-05-21T00:52:12;11.43;;;9.13;;
79212;SDS011;68639;52.380;9.822;2023-05-21T00:54:37;12.73;;;9.35;;
79212;SDS011;68639;52.380;9.822;2023-05-21T00:57:03;16.85;;;9.52;;
79212;SDS011;68639;52.380;9.822;2023-05-21T00:59:29;12.57;;;9.57;;
79212;SDS011;68639;52.380;9.822;2023-05-21T01:01:55;11.95;;;8.68;;
79212;SDS011;68639;52.380;9.822;2023-05-21T01:04:23;13.10;;;8.52;;
79212;SDS011;68639;52.380;9.822;2023-05-21T01:06:48;12.55;;;8.70;;
79212;SDS011;68639;52.380;9.822;2023-05-21T01:09:14;14.93;;;9.18;;
79212;SDS011;68639;52.380;9.822;2023-05-21T01:11:40;12.45;;;9.00;;
79212;SDS011;68639;52.380;9.822;2023-05-21T01:14:07;11.95;;;8.57;;
79212;SDS011;68639;52.380;9.822;2023-05-21T01:16:35;12.13;;;8.82;;
79212;SDS011;68639;52.380;9.822;2023-05-21T01:19:01;10.07;;;7.72;;
79212;SDS011;68639;52.380;9.822;2023-05-21T01:21:27;14.77;;;7.97;;
79212;SDS011;68639;52.380;9.822;2023-05-21T01:23:54;13.37;;;8.37;;
79212;SDS011;68639;52.380;9.822;2023-05-21T01:26:20;10.57;;;8.02;;
79212;SDS011;68639;52.380;9.822;2023-05-21T01:28:45;21.00;;;8.65;;
79212;SDS011;68639;52.380;9.822;2023-05-21T01:31:15;11.10;;;8.13;;
79212;SDS011;68639;52.380;9.822;2023-05-21T01:33:46;12.13;;;8.00;;
79212;SDS011;68639;52.380;9.822;2023-05-21T01:36:22;11.68;;;8.68;;
79212;SDS011;68639;52.380;9.822;2023-05-21T01:41:16;9.77;;;7.97;;
79212;SDS011;68639;52.380;9.822;2023-05-21T01:43:43;11.95;;;9.23;;
79212;SDS011;68639;52.380;9.822;2023-05-21T01:46:09;10.07;;;7.70;;
79212;SDS011;68639;52.380;9.822;2023-05-21T01:48:36;10.95;;;7.72;;
79212;SDS011;68639;52.380;9.822;2023-05-21T01:51:03;13.98;;;8.32;;
79212;SDS011;68639;52.380;9.822;2023-05-21T01:53:29;14.57;;;9.07;;
79212;SDS011;68639;52.380;9.822;2023-05-21T01:55:54;14.88;;;8.02;;
79212;SDS011;68639;52.380;9.822;2023-05-21T01:58:19;10.73;;;8.40;;
79212;SDS011;68639;52.380;9.822;2023-05-21T02:00:46;11.63;;;8.33;;
79212;SDS011;68639;52.380;9.822;2023-05-21T02:03:14;10.65;;;8.18;;
79212;SDS011;68639;52.380;9.822;2023-05-21T02:05:40;9.90;;;8.07;;
79212;SDS011;68639;52.380;9.822;2023-05-21T02:08:05;12.48;;;8.50;;
79212;SDS011;68639;52.380;9.822;2023-05-21T02:10:32;12.98;;;8.75;;
79212;SDS011;68639;52.380;9.822;2023-05-21T02:12:57;13.90;;;8.47;;
79212;SDS011;68639;52.380;9.822;2023-05-21T02:15:23;15.93;;;7.97;;
79212;SDS011;68639;52.380;9.822;2023-05-21T02:17:48;12.57;;;8.43;;
79212;SDS011;68639;52.380;9.822;2023-05-21T02:20:15;12.80;;;7.90;;
79212;SDS011;68639;52.380;9.822;2023-05-21T02:22:44;12.73;;;8.63;;
79212;SDS011;68639;52.380;9.822;2023-05-21T02:25:10;14.43;;;8.23;;
79212;SDS011;68639;52.380;9.822;2023-05-21T02:27:36;10.13;;;7.43;;
79212;SDS011;68639;52.380;9.822;2023-05-21T02:30:02;11.35;;;7.65;;
79212;SDS011;68639;52.380;9.822;2023-05-21T02:32:28;16.40;;;8.30;;
79212;SDS011;68639;52.380;9.822;2023-05-21T02:34:55;13.57;;;8.43;;
79212;SDS011;68639;52.380;9.822;2023-05-21T02:37:22;14.63;;;8.23;;
79212;SDS011;68639;52.380;9.822;2023-05-21T02:39:47;13.67;;;7.90;;
79212;SDS011;68639;52.380;9.822;2023-05-21T02:42:13;9.65;;;8.00;;
79212;SDS011;68639;52.380;9.822;2023-05-21T02:44:38;13.67;;;8.10;;
79212;SDS011;68639;52.380;9.822;2023-05-21T02:47:03;10.30;;;7.70;;
79212;SDS011;68639;52.380;9.822;2023-05-21T02:49:29;14.67;;;8.07;;
79212;SDS011;68639;52.380;9.822;2023-05-21T02:51:54;16.87;;;8.27;;
79212;SDS011;68639;52.380;9.822;2023-05-21T02:54:19;11.90;;;8.20;;
79212;SDS011;68639;52.380;9.822;2023-05-21T02:56:45;11.63;;;7.57;;
79212;SDS011;68639;52.380;9.822;2023-05-21T02:59:10;14.53;;;7.60;;
79212;SDS011;68639;52.380;9.822;2023-05-21T03:01:35;11.70;;;7.70;;
79212;SDS011;68639;52.380;9.822;2023-05-21T03:04:00;12.07;;;7.70;;
79212;SDS011;68639;52.380;9.822;2023-05-21T03:06:26;14.60;;;7.67;;
79212;SDS011;68639;52.380;9.822;2023-05-21T03:08:51;12.30;;;7.67;;
79212;SDS011;68639;52.380;9.822;2023-05-21T03:11:17;13.83;;;7.40;;
79212;SDS011;68639;52.380;9.822;2023-05-21T03:13:42;9.53;;;7.40;;
79212;SDS011;68639;52.380;9.822;2023-05-21T03:16:08;13.93;;;7.93;;
79212;SDS011;68639;52.380;9.822;2023-05-21T03:18:33;13.70;;;8.10;;
79212;SDS011;68639;52.380;9.822;2023-05-21T03:20:58;12.67;;;8.63;;
79212;SDS011;68639;52.380;9.822;2023-05-21T03:23:24;10.63;;;7.63;;
79212;SDS011;68639;52.380;9.822;2023-05-21T03:25:49;12.17;;;7.83;;
79212;SDS011;68639;52.380;9.822;2023-05-21T03:28:15;12.80;;;7.33;;
79212;SDS011;68639;52.380;9.822;2023-05-21T03:30:41;10.03;;;7.73;;
79212;SDS011;68639;52.380;9.822;2023-05-21T03:33:10;12.27;;;8.30;;
79212;SDS011;68639;52.380;9.822;2023-05-21T03:35:36;11.30;;;7.67;;
79212;SDS011;68639;52.380;9.822;2023-05-21T03:38:01;12.67;;;7.93;;
79212;SDS011;68639;52.380;9.822;2023-05-21T03:40:26;11.83;;;7.83;;
79212;SDS011;68639;52.380;9.822;2023-05-21T03:42:52;10.07;;;7.10;;
79212;SDS011;68639;52.380;9.822;2023-05-21T03:45:17;11.90;;;7.43;;
79212;SDS011;68639;52.380;9.822;2023-05-21T03:47:42;14.53;;;7.47;;
79212;SDS011;68639;52.380;9.822;2023-05-21T03:50:08;13.07;;;7.20;;
79212;SDS011;68639;52.380;9.822;2023-05-21T03:52:33;12.77;;;7.17;;
79212;SDS011;68639;52.380;9.822;2023-05-21T03:54:59;13.87;;;7.40;;
79212;SDS011;68639;52.380;9.822;2023-05-21T03:57:24;11.90;;;7.90;;
79212;SDS011;68639;52.380;9.822;2023-05-21T03:59:49;12.37;;;8.10;;
79212;SDS011;68639;52.380;9.822;2023-05-21T04:02:15;13.70;;;7.60;;
79212;SDS011;68639;52.380;9.822;2023-05-21T04:04:40;9.77;;;6.95;;
79212;SDS011;68639;52.380;9.822;2023-05-21T04:07:07;10.33;;;7.43;;
79212;SDS011;68639;52.380;9.822;2023-05-21T04:09:39;13.03;;;7.20;;
79212;SDS011;68639;52.380;9.822;2023-05-21T04:12:05;10.30;;;6.47;;
79212;SDS011;68639;52.380;9.822;2023-05-21T04:14:31;11.18;;;6.63;;
79212;SDS011;68639;52.380;9.822;2023-05-21T04:16:57;10.50;;;6.50;;
79212;SDS011;68639;52.380;9.822;2023-05-21T04:19:22;11.93;;;6.85;;
79212;SDS011;68639;52.380;9.822;2023-05-21T04:21:47;14.48;;;6.70;;
79212;SDS011;68639;52.380;9.822;2023-05-21T04:24:12;12.53;;;6.40;;
79212;SDS011;68639;52.380;9.822;2023-05-21T04:26:38;10.15;;;6.78;;
79212;SDS011;68639;52.380;9.822;2023-05-21T04:29:06;14.70;;;6.85;;
79212;SDS011;68639;52.380;9.822;2023-05-21T04:31:31;12.88;;;6.93;;
79212;SDS011;68639;52.380;9.822;2023-05-21T04:33:56;12.27;;;6.55;;
79212;SDS011;68639;52.380;9.822;2023-05-21T04:36:22;11.30;;;5.78;;
79212;SDS011;68639;52.380;9.822;2023-05-21T04:38:48;8.65;;;6.25;;
79212;SDS011;68639;52.380;9.822;2023-05-21T04:41:13;19.48;;;6.53;;
79212;SDS011;68639;52.380;9.822;2023-05-21T04:43:39;9.45;;;6.18;;
79212;SDS011;68639;52.380;9.822;2023-05-21T04:46:08;10.68;;;5.82;;
79212;SDS011;68639;52.380;9.822;2023-05-21T04:48:33;11.20;;;5.88;;
79212;SDS011;68639;52.380;9.822;2023-05-21T04:50:58;13.32;;;6.65;;
79212;SDS011;68639;52.380;9.822;2023-05-21T04:53:23;11.98;;;6.20;;
79212;SDS011;68639;52.380;9.822;2023-05-21T04:55:49;11.35;;;6.43;;
79212;SDS011;68639;52.380;9.822;2023-05-21T04:58:15;9.30;;;6.18;;
79212;SDS011;68639;52.380;9.822;2023-05-21T05:00:42;11.35;;;6.10;;
79212;SDS011;68639;52.380;9.822;2023-05-21T05:03:10;11.95;;;6.70;;
79212;SDS011;68639;52.380;9.822;2023-05-21T05:05:36;10.48;;;6.25;;
79212;SDS011;68639;52.380;9.822;2023-05-21T05:08:01;12.38;;;6.38;;
79212;SDS011;68639;52.380;9.822;2023-05-21T05:10:28;12.90;;;6.90;;
79212;SDS011;68639;52.380;9.822;2023-05-21T05:12:53;15.57;;;7.50;;
79212;SDS011;68639;52.380;9.822;2023-05-21T05:15:18;10.57;;;6.50;;
79212;SDS011;68639;52.380;9.822;2023-05-21T05:17:43;11.50;;;6.75;;
79212;SDS011;68639;52.380;9.822;2023-05-21T05:20:09;12.93;;;7.25;;
79212;SDS011;68639;52.380;9.822;2023-05-21T05:22:35;12.75;;;6.95;;
79212;SDS011;68639;52.380;9.822;2023-05-21T05:25:00;16.10;;;8.10;;
79212;SDS011;68639;52.380;9.822;2023-05-21T05:27:25;15.77;;;8.00;;
79212;SDS011;68639;52.380;9.822;2023-05-21T05:29:50;13.57;;;7.68;;
79212;SDS011;68639;52.380;9.822;2023-05-21T05:32:16;15.48;;;6.95;;
79212;SDS011;68639;52.380;9.822;2023-05-21T05:34:41;10.85;;;6.78;;
79212;SDS011;68639;52.380;9.822;2023-05-21T05:37:07;13.02;;;7.50;;
79212;SDS011;68639;52.380;9.822;2023-05-21T05:39:32;12.10;;;7.93;;
79212;SDS011;68639;52.380;9.822;2023-05-21T05:41:57;11.88;;;7.90;;
79212;SDS011;68639;52.380;9.822;2023-05-21T05:44:23;13.90;;;7.38;;
79212;SDS011;68639;52.380;9.822;2023-05-21T05:46:48;14.10;;;7.93;;
79212;SDS011;68639;52.380;9.822;2023-05-21T05:49:13;11.82;;;7.90;;
79212;SDS011;68639;52.380;9.822;2023-05-21T05:51:39;16.45;;;8.43;;
79212;SDS011;68639;52.380;9.822;2023-05-21T05:54:04;12.15;;;7.88;;
79212;SDS011;68639;52.380;9.822;2023-05-21T05:56:30;10.88;;;7.75;;
79212;SDS011;68639;52.380;9.822;2023-05-21T05:58:55;13.07;;;8.77;;
79212;SDS011;68639;52.380;9.822;2023-05-21T06:01:20;13.02;;;8.52;;
79212;SDS011;68639;52.380;9.822;2023-05-21T06:03:48;13.45;;;8.75;;
79212;SDS011;68639;52.380;9.822;2023-05-21T06:06:13;13.80;;;8.75;;
79212;SDS011;68639;52.380;9.822;2023-05-21T06:08:39;13.52;;;9.82;;
79212;SDS011;68639;52.380;9.822;2023-05-21T06:11:04;13.18;;;8.70;;
79212;SDS011;68639;52.380;9.822;2023-05-21T06:13:29;14.18;;;9.15;;
79212;SDS011;68639;52.380;9.822;2023-05-21T06:15:55;15.50;;;8.82;;
79212;SDS011;68639;52.380;9.822;2023-05-21T06:18:21;14.35;;;8.98;;
79212;SDS011;68639;52.380;9.822;2023-05-21T06:20:46;17.00;;;9.80;;
79212;SDS011;68639;52.380;9.822;2023-05-21T06:23:11;16.83;;;10.13;;
79212;SDS011;68639;52.380;9.822;2023-05-21T06:25:36;16.45;;;10.15;;
79212;SDS011;68639;52.380;9.822;2023-05-21T06:28:02;17.73;;;9.95;;
79212;SDS011;68639;52.380;9.822;2023-05-21T06:30:27;14.90;;;10.40;;
79212;SDS011;68639;52.380;9.822;2023-05-21T06:32:52;16.75;;;10.18;;
79212;SDS011;68639;52.380;9.822;2023-05-21T06:35:18;16.38;;;10.48;;
79212;SDS011;68639;52.380;9.822;2023-05-21T06:37:43;16.95;;;10.68;;
79212;SDS011;68639;52.380;9.822;2023-05-21T06:40:09;17.20;;;10.63;;
79212;SDS011;68639;52.380;9.822;2023-05-21T06:42:35;18.88;;;10.75;;
79212;SDS011;68639;52.380;9.822;2023-05-21T06:45:00;15.73;;;10.90;;
79212;SDS011;68639;52.380;9.822;2023-05-21T06:47:25;20.85;;;11.18;;
79212;SDS011;68639;52.380;9.822;2023-05-21T06:49:51;16.42;;;10.95;;
79212;SDS011;68639;52.380;9.822;2023-05-21T06:52:16;16.50;;;11.20;;
79212;SDS011;68639;52.380;9.822;2023-05-21T06:54:41;16.33;;;11.38;;
79212;SDS011;68639;52.380;9.822;2023-05-21T06:57:07;22.13;;;11.23;;
79212;SDS011;68639;52.380;9.822;2023-05-21T06:59:32;14.70;;;11.55;;
79212;SDS011;68639;52.380;9.822;2023-05-21T07:01:58;16.15;;;12.05;;
79212;SDS011;68639;52.380;9.822;2023-05-21T07:04:23;18.58;;;11.90;;
79212;SDS011;68639;52.380;9.822;2023-05-21T07:06:48;15.50;;;11.20;;
79212;SDS011;68639;52.380;9.822;2023-05-21T07:09:13;18.27;;;13.20;;
79212;SDS011;68639;52.380;9.822;2023-05-21T07:11:39;17.70;;;13.25;;
79212;SDS011;68639;52.380;9.822;2023-05-21T07:14:04;18.50;;;13.05;;
79212;SDS011;68639;52.380;9.822;2023-05-21T07:16:30;20.83;;;13.25;;
79212;SDS011;68639;52.380;9.822;2023-05-21T07:18:55;20.52;;;13.65;;
79212;SDS011;68639;52.380;9.822;2023-05-21T07:21:20;23.98;;;12.95;;
79212;SDS011;68639;52.380;9.822;2023-05-21T07:23:46;17.85;;;12.57;;
79212;SDS011;68639;52.380;9.822;2023-05-21T07:26:11;20.23;;;13.88;;
79212;SDS011;68639;52.380;9.822;2023-05-21T07:28:36;17.17;;;13.20;;
79212;SDS011;68639;52.380;9.822;2023-05-21T07:31:02;19.67;;;13.20;;
79212;SDS011;68639;52.380;9.822;2023-05-21T07:33:27;19.15;;;13.65;;
79212;SDS011;68639;52.380;9.822;2023-05-21T07:35:52;18.35;;;13.88;;
79212;SDS011;68639;52.380;9.822;2023-05-21T07:38:17;17.88;;;13.48;;
79212;SDS011;68639;52.380;9.822;2023-05-21T07:40:43;18.33;;;13.23;;
79212;SDS011;68639;52.380;9.822;2023-05-21T07:43:08;17.40;;;13.30;;
79212;SDS011;68639;52.380;9.822;2023-05-21T07:45:33;21.00;;;13.13;;
79212;SDS011;68639;52.380;9.822;2023-05-21T07:47:59;17.85;;;12.32;;
79212;SDS011;68639;52.380;9.822;2023-05-21T07:50:24;20.05;;;12.80;;
79212;SDS011;68639;52.380;9.822;2023-05-21T07:52:49;17.90;;;13.02;;
79212;SDS011;68639;52.380;9.822;2023-05-21T07:55:14;21.67;;;13.77;;
79212;SDS011;68639;52.380;9.822;2023-05-21T07:57:40;20.10;;;12.98;;
79212;SDS011;68639;52.380;9.822;2023-05-21T08:00:06;16.38;;;12.63;;
79212;SDS011;68639;52.380;9.822;2023-05-21T08:02:33;17.05;;;13.63;;
79212;SDS011;68639;52.380;9.822;2023-05-21T08:04:59;19.48;;;13.57;;
79212;SDS011;68639;52.380;9.822;2023-05-21T08:07:25;19.17;;;13.02;;
79212;SDS011;68639;52.380;9.822;2023-05-21T08:09:51;24.90;;;16.95;;
79212;SDS011;68639;52.380;9.822;2023-05-21T08:12:18;20.33;;;15.38;;
79212;SDS011;68639;52.380;9.822;2023-05-21T08:14:43;19.13;;;13.75;;
79212;SDS011;68639;52.380;9.822;2023-05-21T08:17:09;18.58;;;14.15;;
79212;SDS011;68639;52.380;9.822;2023-05-21T08:19:37;33.05;;;15.25;;
79212;SDS011;68639;52.380;9.822;2023-05-21T08:22:02;21.95;;;16.65;;
79212;SDS011;68639;52.380;9.822;2023-05-21T08:24:27;21.92;;;16.23;;
79212;SDS011;68639;52.380;9.822;2023-05-21T08:26:53;22.00;;;16.13;;
79212;SDS011;68639;52.380;9.822;2023-05-21T08:29:18;22.15;;;16.95;;
79212;SDS011;68639;52.380;9.822;2023-05-21T08:31:43;20.67;;;16.25;;
79212;SDS011;68639;52.380;9.822;2023-05-21T08:34:09;22.65;;;16.90;;
79212;SDS011;68639;52.380;9.822;2023-05-21T08:36:34;22.48;;;15.73;;
79212;SDS011;68639;52.380;9.822;2023-05-21T08:39:00;25.85;;;17.58;;
79212;SDS011;68639;52.380;9.822;2023-05-21T08:41:25;20.73;;;16.45;;
79212;SDS011;68639;52.380;9.822;2023-05-21T08:43:54;25.08;;;17.10;;
79212;SDS011;68639;52.380;9.822;2023-05-21T08:46:21;22.27;;;16.73;;
79212;SDS011;68639;52.380;9.822;2023-05-21T08:48:47;23.73;;;16.95;;
79212;SDS011;68639;52.380;9.822;2023-05-21T08:51:12;23.95;;;17.15;;
79212;SDS011;68639;52.380;9.822;2023-05-21T08:53:38;23.13;;;16.63;;
79212;SDS011;68639;52.380;9.822;2023-05-21T08:56:03;22.00;;;17.23;;
79212;SDS011;68639;52.380;9.822;2023-05-21T08:58:30;23.70;;;16.92;;
79212;SDS011;68639;52.380;9.822;2023-05-21T09:00:56;20.85;;;17.45;;
79212;SDS011;68639;52.380;9.822;2023-05-21T09:03:21;24.05;;;17.70;;
79212;SDS011;68639;52.380;9.822;2023-05-21T09:05:48;19.70;;;16.92;;
79212;SDS011;68639;52.380;9.822;2023-05-21T09:10:45;17.77;;;15.07;;
79212;SDS011;68639;52.380;9.822;2023-05-21T09:13:12;23.67;;;17.42;;
79212;SDS011;68639;52.380;9.822;2023-05-21T09:15:38;23.65;;;16.65;;
79212;SDS011;68639;52.380;9.822;2023-05-21T09:18:03;22.85;;;17.10;;
79212;SDS011;68639;52.380;9.822;2023-05-21T09:20:29;20.55;;;16.25;;
79212;SDS011;68639;52.380;9.822;2023-05-21T09:22:54;20.55;;;16.83;;
79212;SDS011;68639;52.380;9.822;2023-05-21T09:25:23;21.65;;;17.30;;
79212;SDS011;68639;52.380;9.822;2023-05-21T09:27:49;21.05;;;16.48;;
79212;SDS011;68639;52.380;9.822;2023-05-21T09:30:15;25.70;;;17.63;;
79212;SDS011;68639;52.380;9.822;2023-05-21T09:32:41;21.02;;;16.25;;
79212;SDS011;68639;52.380;9.822;2023-05-21T09:35:07;23.15;;;17.52;;
79212;SDS011;68639;52.380;9.822;2023-05-21T09:37:43;26.02;;;16.98;;
79212;SDS011;68639;52.380;9.822;2023-05-21T09:40:12;22.00;;;16.48;;
79212;SDS011;68639;52.380;9.822;2023-05-21T09:42:44;25.83;;;17.00;;
79212;SDS011;68639;52.380;9.822;2023-05-21T09:45:10;20.67;;;16.02;;
79212;SDS011;68639;52.380;9.822;2023-05-21T09:47:39;18.73;;;16.40;;
79212;SDS011;68639;52.380;9.822;2023-05-21T09:50:05;20.45;;;15.98;;
79212;SDS011;68639;52.380;9.822;2023-05-21T09:52:30;21.67;;;16.55;;
79212;SDS011;68639;52.380;9.822;2023-05-21T09:54:55;23.60;;;16.42;;
79212;SDS011;68639;52.380;9.822;2023-05-21T09:57:27;23.05;;;15.90;;
79212;SDS011;68639;52.380;9.822;2023-05-21T09:59:53;19.80;;;15.80;;
79212;SDS011;68639;52.380;9.822;2023-05-21T10:02:19;26.98;;;17.15;;
79212;SDS011;68639;52.380;9.822;2023-05-21T10:04:46;25.05;;;15.98;;
79212;SDS011;68639;52.380;9.822;2023-05-21T10:07:12;21.35;;;16.02;;
79212;SDS011;68639;52.380;9.822;2023-05-21T10:09:37;22.92;;;16.35;;
79212;SDS011;68639;52.380;9.822;2023-05-21T10:12:03;19.75;;;16.02;;
79212;SDS011;68639;52.380;9.822;2023-05-21T10:14:29;21.33;;;15.82;;
79212;SDS011;68639;52.380;9.822;2023-05-21T10:16:56;23.98;;;14.95;;
79212;SDS011;68639;52.380;9.822;2023-05-21T10:19:21;23.55;;;15.73;;
79212;SDS011;68639;52.380;9.822;2023-05-21T10:21:48;21.70;;;15.13;;
79212;SDS011;68639;52.380;9.822;2023-05-21T10:24:14;19.77;;;14.57;;
79212;SDS011;68639;52.380;9.822;2023-05-21T10:26:39;18.50;;;14.38;;
79212;SDS011;68639;52.380;9.822;2023-05-21T10:29:05;19.13;;;14.48;;
79212;SDS011;68639;52.380;9.822;2023-05-21T10:31:31;20.27;;;14.82;;
79212;SDS011;68639;52.380;9.822;2023-05-21T10:33:57;20.42;;;14.93;;
79212;SDS011;68639;52.380;9.822;2023-05-21T10:36:23;23.88;;;14.88;;
79212;SDS011;68639;52.380;9.822;2023-05-21T10:38:49;16.80;;;14.13;;
79212;SDS011;68639;52.380;9.822;2023-05-21T10:41:15;16.85;;;13.75;;
79212;SDS011;68639;52.380;9.822;2023-05-21T11:01:11;15.77;;;12.18;;
79212;SDS011;68639;52.380;9.822;2023-05-21T11:03:36;16.35;;;13.13;;
79212;SDS011;68639;52.380;9.822;2023-05-21T11:06:02;14.95;;;12.63;;
79212;SDS011;68639;52.380;9.822;2023-05-21T11:08:29;18.50;;;12.25;;
79212;SDS011;68639;52.380;9.822;2023-05-21T11:11:00;22.95;;;12.40;;
79212;SDS011;68639;52.380;9.822;2023-05-21T11:13:26;14.25;;;11.77;;
79212;SDS011;68639;52.380;9.822;2023-05-21T11:21:03;20.42;;;12.00;;
79212;SDS011;68639;52.380;9.822;2023-05-21T11:26:14;13.75;;;11.88;;
79212;SDS011;68639;52.380;9.822;2023-05-21T11:28:40;15.90;;;11.32;;
79212;SDS011;68639;52.380;9.822;2023-05-21T11:31:26;16.52;;;11.20;;
79212;SDS011;68639;52.380;9.822;2023-05-21T11:36:44;19.90;;;10.82;;
79212;SDS011;68639;52.380;9.822;2023-05-21T11:39:11;18.50;;;11.43;;
79212;SDS011;68639;52.380;9.822;2023-05-21T11:44:14;24.42;;;15.50;;
79212;SDS011;68639;52.380;9.822;2023-05-21T11:46:41;28.60;;;14.45;;
79212;SDS011;68639;52.380;9.822;2023-05-21T11:49:06;18.17;;;12.68;;
79212;SDS011;68639;52.380;9.822;2023-05-21T11:51:31;17.55;;;11.73;;
79212;SDS011;68639;52.380;9.822;2023-05-21T11:53:57;16.33;;;11.43;;
79212;SDS011;68639;52.380;9.822;2023-05-21T11:56:23;18.40;;;11.85;;
79212;SDS011;68639;52.380;9.822;2023-05-21T11:58:52;14.88;;;11.10;;
79212;SDS011;68639;52.380;9.822;2023-05-21T12:01:22;12.02;;;10.65;;
79212;SDS011;68639;52.380;9.822;2023-05-21T12:03:47;14.85;;;10.32;;
79212;SDS011;68639;52.380;9.822;2023-05-21T12:06:12;17.58;;;11.00;;
79212;SDS011;68639;52.380;9.822;2023-05-21T12:08:38;17.23;;;11.52;;
79212;SDS011;68639;52.380;9.822;2023-05-21T12:11:03;14.80;;;10.90;;
79212;SDS011;68639;52.380;9.822;2023-05-21T12:13:28;13.52;;;11.15;;
79212;SDS011;68639;52.380;9.822;2023-05-21T12:15:54;16.90;;;11.43;;
79212;SDS011;68639;52.380;9.822;2023-05-21T12:18:19;14.43;;;10.68;;
79212;SDS011;68639;52.380;9.822;2023-05-21T12:20:45;13.68;;;11.07;;
79212;SDS011;68639;52.380;9.822;2023-05-21T12:23:19;13.55;;;10.75;;
79212;SDS011;68639;52.380;9.822;2023-05-21T12:25:47;13.90;;;10.65;;
79212;SDS011;68639;52.380;9.822;2023-05-21T12:28:12;16.45;;;10.32;;
79212;SDS011;68639;52.380;9.822;2023-05-21T12:30:37;15.50;;;10.90;;
79212;SDS011;68639;52.380;9.822;2023-05-21T12:33:03;17.58;;;11.27;;
79212;SDS011;68639;52.380;9.822;2023-05-21T12:35:29;22.23;;;11.18;;
79212;SDS011;68639;52.380;9.822;2023-05-21T12:37:55;14.02;;;10.60;;
79212;SDS011;68639;52.380;9.822;2023-05-21T12:40:20;16.33;;;10.90;;
79212;SDS011;68639;52.380;9.822;2023-05-21T12:42:46;13.30;;;11.27;;
79212;SDS011;68639;52.380;9.822;2023-05-21T12:45:11;16.17;;;11.10;;
79212;SDS011;68639;52.380;9.822;2023-05-21T12:47:37;12.57;;;10.98;;
79212;SDS011;68639;52.380;9.822;2023-05-21T12:50:03;14.40;;;11.15;;
79212;SDS011;68639;52.380;9.822;2023-05-21T12:52:28;14.57;;;10.73;;
79212;SDS011;68639;52.380;9.822;2023-05-21T12:54:57;14.68;;;10.10;;
79212;SDS011;68639;52.380;9.822;2023-05-21T12:57:24;16.33;;;11.30;;
79212;SDS011;68639;52.380;9.822;2023-05-21T13:02:15;13.25;;;10.38;;
79212;SDS011;68639;52.380;9.822;2023-05-21T13:04:41;16.38;;;10.55;;
79212;SDS011;68639;52.380;9.822;2023-05-21T13:07:06;14.48;;;10.85;;
79212;SDS011;68639;52.380;9.822;2023-05-21T13:09:31;15.48;;;11.45;;
79212;SDS011;68639;52.380;9.822;2023-05-21T13:11:57;13.82;;;10.27;;
79212;SDS011;68639;52.380;9.822;2023-05-21T13:14:22;14.73;;;10.50;;
79212;SDS011;68639;52.380;9.822;2023-05-21T13:16:47;15.02;;;10.88;;
79212;SDS011;68639;52.380;9.822;2023-05-21T13:19:12;15.57;;;10.65;;
79212;SDS011;68639;52.380;9.822;2023-05-21T13:21:39;13.65;;;10.02;;
79212;SDS011;68639;52.380;9.822;2023-05-21T13:24:04;14.05;;;10.75;;
79212;SDS011;68639;52.380;9.822;2023-05-21T13:26:30;15.25;;;10.02;;
79212;SDS011;68639;52.380;9.822;2023-05-21T13:28:55;14.45;;;10.77;;
79212;SDS011;68639;52.380;9.822;2023-05-21T13:31:20;13.63;;;11.10;;
79212;SDS011;68639;52.380;9.822;2023-05-21T13:33:45;18.05;;;10.68;;
79212;SDS011;68639;52.380;9.822;2023-05-21T13:36:11;17.02;;;10.98;;
79212;SDS011;68639;52.380;9.822;2023-05-21T13:38:36;13.80;;;11.10;;
79212;SDS011;68639;52.380;9.822;2023-05-21T13:41:01;14.68;;;10.52;;
79212;SDS011;68639;52.380;9.822;2023-05-21T13:43:27;13.68;;;11.00;;
79212;SDS011;68639;52.380;9.822;2023-05-21T13:45:52;14.30;;;11.15;;
79212;SDS011;68639;52.380;9.822;2023-05-21T13:48:17;15.00;;;10.90;;
79212;SDS011;68639;52.380;9.822;2023-05-21T13:50:42;15.52;;;10.80;;
79212;SDS011;68639;52.380;9.822;2023-05-21T13:53:08;13.25;;;10.60;;
79212;SDS011;68639;52.380;9.822;2023-05-21T13:55:33;19.38;;;10.80;;
79212;SDS011;68639;52.380;9.822;2023-05-21T13:57:58;24.00;;;11.18;;
79212;SDS011;68639;52.380;9.822;2023-05-21T14:00:24;19.30;;;11.30;;
79212;SDS011;68639;52.380;9.822;2023-05-21T14:02:49;12.55;;;10.57;;
79212;SDS011;68639;52.380;9.822;2023-05-21T14:05:14;14.45;;;10.98;;
79212;SDS011;68639;52.380;9.822;2023-05-21T14:07:40;13.30;;;10.63;;
79212;SDS011;68639;52.380;9.822;2023-05-21T14:10:06;15.23;;;11.57;;
79212;SDS011;68639;52.380;9.822;2023-05-21T14:12:31;17.73;;;12.23;;
79212;SDS011;68639;52.380;9.822;2023-05-21T14:14:57;16.20;;;11.70;;
79212;SDS011;68639;52.380;9.822;2023-05-21T14:17:22;16.27;;;11.30;;
79212;SDS011;68639;52.380;9.822;2023-05-21T14:19:47;14.50;;;11.18;;
79212;SDS011;68639;52.380;9.822;2023-05-21T14:22:13;17.35;;;11.95;;
79212;SDS011;68639;52.380;9.822;2023-05-21T14:24:38;15.27;;;11.85;;
79212;SDS011;68639;52.380;9.822;2023-05-21T14:27:04;14.40;;;11.82;;
79212;SDS011;68639;52.380;9.822;2023-05-21T14:29:29;15.35;;;11.50;;
79212;SDS011;68639;52.380;9.822;2023-05-21T14:31:54;14.30;;;11.70;;
79212;SDS011;68639;52.380;9.822;2023-05-21T14:34:20;16.42;;;11.88;;
79212;SDS011;68639;52.380;9.822;2023-05-21T14:36:45;15.00;;;11.18;;
79212;SDS011;68639;52.380;9.822;2023-05-21T14:39:10;14.02;;;11.27;;
79212;SDS011;68639;52.380;9.822;2023-05-21T14:41:37;14.30;;;11.55;;
79212;SDS011;68639;52.380;9.822;2023-05-21T14:44:02;14.60;;;11.70;;
79212;SDS011;68639;52.380;9.822;2023-05-21T14:46:28;15.32;;;12.32;;
79212;SDS011;68639;52.380;9.822;2023-05-21T14:48:54;15.38;;;11.52;;
79212;SDS011;68639;52.380;9.822;2023-05-21T14:51:23;16.95;;;11.90;;
79212;SDS011;68639;52.380;9.822;2023-05-21T14:53:48;14.55;;;11.35;;
79212;SDS011;68639;52.380;9.822;2023-05-21T14:56:13;14.43;;;11.48;;
79212;SDS011;68639;52.380;9.822;2023-05-21T14:58:39;16.55;;;12.10;;